createdAt,value
2023-08-23T00:00:22.237Z,17.70
2023-08-23T00:03:23.915Z,17.90
2023-08-23T00:06:25.835Z,19.40
2023-08-23T00:09:27.508Z,19.20
2023-08-23T00:12:29.232Z,17.50
2023-08-23T00:15:30.915Z,17.80
2023-08-23T00:18:32.708Z,17.80
2023-08-23T00:21:34.289Z,17.30
2023-08-23T00:24:35.928Z,17.70
2023-08-23T00:27:37.589Z,17.60
2023-08-23T00:30:39.191Z,17.40
2023-08-23T00:33:42.032Z,17.60
2023-08-23T00:36:43.890Z,17.50
2023-08-23T00:39:48.111Z,17.40
2023-08-23T00:42:49.738Z,19.50
2023-08-23T00:45:51.736Z,17.50
2023-08-23T00:48:53.451Z,17.30
2023-08-23T00:51:56.379Z,17.40
2023-08-23T00:54:58.966Z,17.50
2023-08-23T00:58:00.657Z,17.30
2023-08-23T01:01:02.316Z,17.40
2023-08-23T01:04:04.133Z,17.20
2023-08-23T01:07:14.821Z,17.50
2023-08-23T01:10:28.232Z,17.30
2023-08-23T01:13:41.372Z,17.30
2023-08-23T01:16:46.663Z,17.10
2023-08-23T01:19:50.301Z,19.20
2023-08-23T01:23:05.604Z,18.20
2023-08-23T01:26:07.208Z,17.20
2023-08-23T01:29:08.884Z,17.00
2023-08-23T01:32:47.547Z,18.50
2023-08-23T01:36:06.542Z,17.50
2023-08-23T01:39:10.308Z,17.10
2023-08-23T01:42:12.371Z,17.20
2023-08-23T01:45:14.143Z,17.00
2023-08-23T01:48:15.854Z,17.30
2023-08-23T01:51:17.501Z,17.10
2023-08-23T01:54:19.198Z,17.10
2023-08-23T01:57:20.754Z,17.00
2023-08-23T02:00:22.404Z,17.00
2023-08-23T02:03:24.103Z,17.00
2023-08-23T02:06:25.806Z,16.80
2023-08-23T02:09:27.758Z,16.80
2023-08-23T02:12:29.358Z,16.90
2023-08-23T02:15:31.677Z,16.80
2023-08-23T02:18:33.349Z,17.00
2023-08-23T02:21:36.114Z,16.80
2023-08-23T02:24:37.861Z,18.40
2023-08-23T02:27:39.561Z,17.10
2023-08-23T02:30:41.611Z,16.90
2023-08-23T02:33:43.212Z,16.50
2023-08-23T02:36:44.912Z,16.80
2023-08-23T02:39:46.655Z,16.80
2023-08-23T02:42:48.270Z,17.00
2023-08-23T02:45:50.362Z,16.90
2023-08-23T02:48:52.025Z,16.70
2023-08-23T02:51:54.133Z,17.00
2023-08-23T02:54:55.708Z,14.40
2023-08-23T02:57:57.788Z,16.70
2023-08-23T03:00:59.394Z,18.80
2023-08-23T03:04:01.024Z,17.20
2023-08-23T03:07:02.672Z,16.90
2023-08-23T03:10:04.583Z,17.90
2023-08-23T03:13:06.206Z,16.80
2023-08-23T03:16:07.835Z,16.80
2023-08-23T03:19:09.618Z,17.00
2023-08-23T03:22:11.229Z,16.80
2023-08-23T03:25:12.913Z,17.00
2023-08-23T03:28:14.845Z,16.90
2023-08-23T03:31:16.575Z,16.60
2023-08-23T03:34:18.210Z,15.50
2023-08-23T03:37:19.829Z,18.80
2023-08-23T03:40:21.699Z,16.80
2023-08-23T03:43:23.390Z,16.90
2023-08-23T03:46:26.635Z,18.70
2023-08-23T03:49:29.787Z,17.80
2023-08-23T03:52:31.528Z,17.10
2023-08-23T03:55:33.325Z,16.70
2023-08-23T03:58:35.983Z,16.50
2023-08-23T04:01:37.726Z,17.20
2023-08-23T04:04:39.464Z,16.60
2023-08-23T04:07:41.886Z,17.80
2023-08-23T04:10:50.915Z,16.60
2023-08-23T04:13:52.527Z,16.60
2023-08-23T04:16:54.163Z,16.60
2023-08-23T04:19:55.934Z,17.60
2023-08-23T04:22:57.564Z,16.60
2023-08-23T04:25:59.229Z,16.60
2023-08-23T04:29:00.818Z,18.00
2023-08-23T04:32:02.519Z,16.80
2023-08-23T04:35:05.361Z,16.50
2023-08-23T04:38:11.358Z,16.60
2023-08-23T04:41:13.018Z,16.70
2023-08-23T04:44:14.629Z,16.60
2023-08-23T04:47:16.264Z,16.80
2023-08-23T04:50:17.960Z,16.50
2023-08-23T04:53:19.687Z,16.30
2023-08-23T04:56:21.310Z,17.00
2023-08-23T04:59:23.010Z,16.50
2023-08-23T05:02:24.650Z,16.60
2023-08-23T05:05:26.414Z,16.70
2023-08-23T05:08:29.205Z,16.80
2023-08-23T05:11:30.928Z,16.70
2023-08-23T05:14:32.610Z,16.70
2023-08-23T05:17:35.439Z,17.00
2023-08-23T05:20:38.803Z,18.40
2023-08-23T05:23:40.398Z,18.10
2023-08-23T05:26:42.113Z,18.00
2023-08-23T05:29:45.099Z,16.90
2023-08-23T05:32:46.785Z,17.10
2023-08-23T05:35:48.446Z,17.00
2023-08-23T05:38:51.475Z,17.10
2023-08-23T05:41:53.087Z,17.10
2023-08-23T05:44:54.715Z,17.30
2023-08-23T05:47:56.947Z,18.00
2023-08-23T05:50:58.606Z,17.20
2023-08-23T05:54:00.360Z,17.50
2023-08-23T05:57:01.978Z,17.50
2023-08-23T06:00:04.259Z,17.50
2023-08-23T06:03:06.077Z,18.00
2023-08-23T06:06:08.458Z,17.60
2023-08-23T06:09:10.059Z,17.80
2023-08-23T06:12:11.654Z,17.90
2023-08-23T06:15:13.258Z,17.90
2023-08-23T06:18:15.013Z,19.30
2023-08-23T06:21:19.871Z,18.20
2023-08-23T06:24:21.878Z,19.60
2023-08-23T06:27:23.532Z,18.40
2023-08-23T06:30:25.192Z,20.40
2023-08-23T06:33:26.882Z,18.70
2023-08-23T06:36:28.499Z,18.60
2023-08-23T06:39:34.232Z,18.80
2023-08-23T06:42:36.482Z,18.60
2023-08-23T06:45:38.095Z,20.30
2023-08-23T06:48:39.692Z,19.90
2023-08-23T06:51:41.329Z,20.20
2023-08-23T06:54:42.939Z,19.20
2023-08-23T06:57:44.540Z,18.90
2023-08-23T07:00:46.161Z,20.20
2023-08-23T07:03:47.963Z,19.40
2023-08-23T07:06:49.640Z,19.30
2023-08-23T07:09:51.601Z,20.20
2023-08-23T07:12:53.278Z,19.70
2023-08-23T07:15:55.932Z,19.50
2023-08-23T07:18:58.106Z,21.80
2023-08-23T07:21:59.757Z,19.90
2023-08-23T07:25:01.521Z,20.30
2023-08-23T07:28:03.308Z,21.20
2023-08-23T07:31:04.971Z,20.30
2023-08-23T07:34:06.692Z,20.50
2023-08-23T07:37:08.324Z,20.20
2023-08-23T07:40:10.756Z,20.90
2023-08-23T07:43:12.432Z,20.80
2023-08-23T07:46:14.151Z,20.60
2023-08-23T07:49:16.441Z,22.50
2023-08-23T07:52:18.251Z,20.70
2023-08-23T07:55:19.825Z,21.20
2023-08-23T07:58:21.463Z,21.60
2023-08-23T08:01:23.194Z,21.20
2023-08-23T08:04:26.137Z,22.80
2023-08-23T08:07:56.192Z,22.60
2023-08-23T08:10:51.195Z,22.40
2023-08-23T08:13:52.890Z,22.60
2023-08-23T08:16:54.472Z,21.40
2023-08-23T08:19:57.609Z,22.70
2023-08-23T08:22:59.867Z,21.40
2023-08-23T08:26:02.474Z,23.70
2023-08-23T08:29:06.467Z,23.20
2023-08-23T08:32:08.740Z,21.50
2023-08-23T08:35:10.734Z,21.70
2023-08-23T08:38:12.407Z,23.30
2023-08-23T08:41:14.294Z,22.90
2023-08-23T08:44:16.351Z,22.70
2023-08-23T08:47:17.980Z,22.10
2023-08-23T08:50:20.801Z,23.40
2023-08-23T08:53:24.228Z,22.30
2023-08-23T08:56:27.076Z,22.90
2023-08-23T08:59:29.211Z,24.00
2023-08-23T09:02:32.461Z,22.10
2023-08-23T09:05:34.864Z,23.60
2023-08-23T09:08:41.727Z,24.60
2023-08-23T09:11:43.384Z,22.30
2023-08-23T09:14:50.089Z,23.80
2023-08-23T09:17:55.954Z,22.60
2023-08-23T09:20:57.641Z,22.70
2023-08-23T09:24:02.414Z,24.00
2023-08-23T09:27:04.284Z,22.70
2023-08-23T09:30:06.646Z,22.50
2023-08-23T09:33:10.982Z,22.80
2023-08-23T09:36:13.235Z,23.90
2023-08-23T09:39:14.836Z,22.70
2023-08-23T09:42:16.974Z,22.90
2023-08-23T09:45:23.168Z,24.20
2023-08-23T09:48:27.002Z,24.50
2023-08-23T09:51:30.000Z,23.00
2023-08-23T09:55:04.249Z,24.30
2023-08-23T09:58:15.561Z,23.30
2023-08-23T10:01:19.746Z,23.40
2023-08-23T10:04:25.798Z,24.60
2023-08-23T10:07:27.974Z,23.30
2023-08-23T10:10:31.780Z,23.90
2023-08-23T10:13:35.655Z,25.00
2023-08-23T10:16:37.903Z,24.80
2023-08-23T10:19:39.648Z,24.90
2023-08-23T10:22:41.953Z,25.10
2023-08-23T10:25:44.760Z,25.00
2023-08-23T10:28:53.394Z,24.10
2023-08-23T10:31:56.152Z,23.50
2023-08-23T10:34:57.735Z,25.70
2023-08-23T10:38:00.464Z,25.20
2023-08-23T10:41:02.776Z,25.00
2023-08-23T10:44:15.167Z,24.70
2023-08-23T10:47:17.290Z,26.50
2023-08-23T10:50:20.319Z,25.10
2023-08-23T10:53:24.567Z,25.30
2023-08-23T10:56:29.415Z,25.60
2023-08-23T10:59:31.043Z,26.30
2023-08-23T11:02:33.760Z,25.40
2023-08-23T11:05:35.902Z,26.10
2023-08-23T11:08:37.658Z,25.20
2023-08-23T11:11:39.270Z,25.00
2023-08-23T11:14:40.935Z,26.30
2023-08-23T11:17:42.617Z,25.10
2023-08-23T11:20:44.568Z,26.20
2023-08-23T11:23:46.198Z,25.70
2023-08-23T11:26:47.791Z,24.80
2023-08-23T11:29:49.583Z,25.30
2023-08-23T11:32:51.242Z,26.50
2023-08-23T11:35:53.272Z,26.30
2023-08-23T11:38:54.918Z,27.00
2023-08-23T11:42:00.099Z,25.80
2023-08-23T11:45:06.416Z,25.80
2023-08-23T11:48:09.189Z,25.80
2023-08-23T11:51:10.889Z,26.20
2023-08-23T11:54:12.910Z,25.90
2023-08-23T11:57:24.070Z,26.10
2023-08-23T12:00:25.956Z,26.00
2023-08-23T12:03:27.698Z,26.30
2023-08-23T12:06:29.674Z,27.30
2023-08-23T12:09:31.565Z,27.10
2023-08-23T12:12:33.148Z,26.10
2023-08-23T12:15:35.436Z,26.20
2023-08-23T12:18:38.006Z,26.10
2023-08-23T12:21:39.602Z,27.10
2023-08-23T12:24:41.825Z,26.20
2023-08-23T12:27:43.947Z,26.30
2023-08-23T12:30:45.610Z,23.80
2023-08-23T12:33:47.601Z,26.40
2023-08-23T12:36:49.325Z,26.40
2023-08-23T12:39:50.943Z,26.40
2023-08-23T12:42:52.905Z,27.70
2023-08-23T12:45:54.574Z,26.40
2023-08-23T12:48:56.279Z,26.50
2023-08-23T12:51:58.012Z,26.40
2023-08-23T12:54:59.660Z,26.60
2023-08-23T12:58:01.280Z,26.60
2023-08-23T13:01:03.612Z,26.80
2023-08-23T13:04:05.462Z,26.60
2023-08-23T13:07:07.104Z,27.10
2023-08-23T13:10:09.146Z,26.90
2023-08-23T13:13:10.924Z,26.60
2023-08-23T13:16:12.570Z,27.10
2023-08-23T13:19:14.346Z,27.40
2023-08-23T13:22:15.979Z,27.50
2023-08-23T13:25:18.225Z,27.40
2023-08-23T13:28:19.904Z,27.50
2023-08-23T13:31:24.558Z,28.40
2023-08-23T13:34:26.226Z,27.70
2023-08-23T13:37:27.841Z,27.60
2023-08-23T13:40:31.092Z,27.80
2023-08-23T13:43:33.606Z,27.80
2023-08-23T13:46:35.297Z,27.60
2023-08-23T13:49:36.985Z,28.30
2023-08-23T13:52:38.844Z,27.80
2023-08-23T13:55:40.440Z,28.80
2023-08-23T13:58:42.390Z,28.70
2023-08-23T14:01:45.433Z,27.90
2023-08-23T14:04:47.196Z,27.80
2023-08-23T14:07:49.092Z,28.30
2023-08-23T14:10:52.032Z,28.50
2023-08-23T14:13:53.727Z,28.20
2023-08-23T14:16:55.599Z,28.90
2023-08-23T14:19:57.204Z,27.90
2023-08-23T14:23:00.703Z,28.70
2023-08-23T14:26:04.992Z,28.60
2023-08-23T14:29:06.715Z,28.30
2023-08-23T14:32:08.711Z,28.30
2023-08-23T14:35:10.540Z,28.10
2023-08-23T14:38:14.674Z,28.20
2023-08-23T14:41:16.288Z,29.30
2023-08-23T14:44:17.987Z,28.50
2023-08-23T14:47:19.589Z,27.90
2023-08-23T14:50:23.440Z,28.30
2023-08-23T14:53:25.849Z,28.50
2023-08-23T14:56:27.484Z,28.40
2023-08-23T14:59:29.095Z,28.50
2023-08-23T15:02:30.855Z,29.50
2023-08-23T15:05:32.792Z,29.80
2023-08-23T15:08:34.435Z,28.90
2023-08-23T15:11:36.085Z,30.40
2023-08-23T15:14:37.726Z,29.00
2023-08-23T15:17:39.465Z,29.40
2023-08-23T15:20:41.136Z,29.20
2023-08-23T15:23:42.802Z,29.00
2023-08-23T15:26:44.428Z,30.10
2023-08-23T15:30:01.105Z,28.60
2023-08-23T15:33:09.437Z,27.00
2023-08-23T15:36:11.219Z,28.60
2023-08-23T15:39:13.173Z,28.50
2023-08-23T15:42:14.871Z,28.00
2023-08-23T15:45:19.561Z,27.90
2023-08-23T15:48:21.380Z,28.00
2023-08-23T15:51:23.059Z,26.40
2023-08-23T15:54:24.693Z,26.20
2023-08-23T15:57:26.300Z,26.10
2023-08-23T16:00:28.991Z,27.00
2023-08-23T16:03:30.681Z,25.80
2023-08-23T16:06:32.423Z,26.60
2023-08-23T16:09:34.103Z,25.50
2023-08-23T16:12:35.776Z,25.80
2023-08-23T16:15:37.386Z,25.60
2023-08-23T16:18:39.356Z,25.40
2023-08-23T16:21:42.303Z,25.30
2023-08-23T16:24:44.271Z,25.10
2023-08-23T16:27:46.055Z,25.40
2023-08-23T16:30:51.590Z,25.30
2023-08-23T16:33:53.505Z,25.60
2023-08-23T16:36:55.411Z,25.20
2023-08-23T16:39:57.042Z,25.00
2023-08-23T16:42:58.931Z,26.20
2023-08-23T16:46:00.879Z,24.80
2023-08-23T16:49:02.504Z,24.80
2023-08-23T16:52:04.579Z,24.70
2023-08-23T16:55:06.854Z,24.50
2023-08-23T16:58:08.519Z,24.70
2023-08-23T17:01:10.603Z,24.40
2023-08-23T17:04:12.281Z,24.70
2023-08-23T17:07:15.351Z,25.70
2023-08-23T17:10:17.175Z,26.10
2023-08-23T17:13:18.835Z,24.10
2023-08-23T17:16:22.468Z,24.10
2023-08-23T17:19:24.175Z,24.30
2023-08-23T17:22:25.845Z,24.30
2023-08-23T17:25:28.635Z,24.00
2023-08-23T17:28:30.234Z,24.50
2023-08-23T17:31:31.947Z,24.30
2023-08-23T17:34:33.585Z,23.90
2023-08-23T17:37:35.252Z,24.30
2023-08-23T17:40:37.164Z,25.60
2023-08-23T17:43:39.250Z,24.60
2023-08-23T17:46:42.900Z,25.10
2023-08-23T17:49:44.613Z,25.00
2023-08-23T17:52:47.840Z,26.90
2023-08-23T17:55:59.021Z,27.20
2023-08-23T17:59:00.678Z,28.50
2023-08-23T18:02:02.296Z,28.10
2023-08-23T18:05:04.461Z,29.20
2023-08-23T18:08:06.248Z,28.30
2023-08-23T18:11:08.432Z,28.20
2023-08-23T18:14:10.056Z,26.50
2023-08-23T18:17:11.724Z,26.10
2023-08-23T18:20:13.350Z,26.00
2023-08-23T18:23:15.157Z,24.90
2023-08-23T18:26:16.745Z,24.20
2023-08-23T18:29:18.377Z,24.70
2023-08-23T18:32:20.000Z,24.50
2023-08-23T18:35:21.618Z,23.50
2023-08-23T18:38:23.394Z,24.40
2023-08-23T18:41:25.040Z,23.20
2023-08-23T18:44:27.839Z,24.50
2023-08-23T18:47:30.637Z,22.60
2023-08-23T18:50:32.435Z,22.50
2023-08-23T18:53:34.883Z,22.10
2023-08-23T18:56:38.786Z,23.50
2023-08-23T18:59:40.372Z,22.20
2023-08-23T19:02:42.223Z,24.20
2023-08-23T19:05:44.035Z,24.20
2023-08-23T19:08:45.762Z,22.40
2023-08-23T19:11:47.504Z,21.90
2023-08-23T19:14:49.125Z,23.80
2023-08-23T19:17:53.534Z,22.70
2023-08-23T19:20:55.290Z,23.40
2023-08-23T19:23:56.963Z,21.80
2023-08-23T19:26:58.716Z,21.40
2023-08-23T19:30:00.419Z,22.70
2023-08-23T19:33:02.157Z,23.30
2023-08-23T19:36:04.868Z,22.60
2023-08-23T19:39:06.446Z,21.20
2023-08-23T19:42:08.141Z,23.50
2023-08-23T19:45:12.287Z,20.10
2023-08-23T19:48:31.698Z,21.40
2023-08-23T19:51:41.664Z,21.60
2023-08-23T19:54:43.829Z,21.30
2023-08-23T19:57:48.257Z,22.60
2023-08-23T20:00:50.296Z,21.00
2023-08-23T20:03:52.651Z,21.20
2023-08-23T20:06:54.283Z,22.30
2023-08-23T20:09:55.868Z,21.80
2023-08-23T20:12:57.541Z,20.80
2023-08-23T20:15:59.670Z,22.90
2023-08-23T20:19:02.142Z,20.90
2023-08-23T20:22:03.910Z,20.90
2023-08-23T20:25:06.322Z,20.70
2023-08-23T20:28:07.966Z,20.90
2023-08-23T20:31:09.745Z,22.30
2023-08-23T20:34:11.356Z,20.60
2023-08-23T20:37:13.386Z,22.30
2023-08-23T20:40:15.172Z,20.50
2023-08-23T20:43:17.300Z,20.60
2023-08-23T20:46:18.994Z,21.60
2023-08-23T20:49:20.679Z,20.40
2023-08-23T20:52:22.257Z,22.20
2023-08-23T20:55:23.846Z,20.50
2023-08-23T20:58:25.442Z,21.40
2023-08-23T21:01:27.275Z,20.50
2023-08-23T21:04:31.670Z,21.50
2023-08-23T21:07:34.674Z,22.60
2023-08-23T21:10:41.076Z,20.40
2023-08-23T21:13:42.921Z,20.70
2023-08-23T21:16:45.332Z,22.10
2023-08-23T21:19:48.038Z,22.30
2023-08-23T21:22:49.766Z,21.80
2023-08-23T21:25:51.815Z,20.30
2023-08-23T21:28:53.635Z,20.50
2023-08-23T21:31:55.335Z,21.30
2023-08-23T21:34:57.216Z,20.30
2023-08-23T21:37:59.726Z,19.90
2023-08-23T21:41:01.442Z,20.00
2023-08-23T21:44:03.081Z,21.50
2023-08-23T21:47:04.780Z,20.20
2023-08-23T21:50:07.025Z,20.10
2023-08-23T21:53:08.689Z,20.00
2023-08-23T21:56:10.418Z,20.00
2023-08-23T21:59:14.232Z,21.40
2023-08-23T22:02:15.983Z,19.60
2023-08-23T22:05:17.851Z,22.00
2023-08-23T22:08:19.535Z,20.00
2023-08-23T22:11:23.290Z,20.00
2023-08-23T22:14:24.887Z,19.60
2023-08-23T22:17:26.548Z,19.70
2023-08-23T22:20:28.291Z,19.80
2023-08-23T22:23:30.009Z,21.60
2023-08-23T22:26:32.214Z,19.50
2023-08-23T22:29:33.880Z,19.70
2023-08-23T22:32:35.522Z,21.20
2023-08-23T22:35:38.567Z,21.60
2023-08-23T22:38:44.369Z,19.50
2023-08-23T22:41:46.235Z,19.70
2023-08-23T22:44:47.953Z,19.50
2023-08-23T22:47:49.803Z,20.20
2023-08-23T22:54:17.413Z,21.40
2023-08-23T22:57:19.087Z,19.40
2023-08-23T23:00:20.776Z,20.10
2023-08-23T23:03:22.441Z,19.40
2023-08-23T23:06:24.244Z,19.40
2023-08-23T23:09:25.854Z,21.10
2023-08-23T23:12:28.737Z,19.20
2023-08-23T23:15:30.460Z,19.70
2023-08-23T23:18:38.372Z,19.20
2023-08-23T23:21:39.981Z,19.20
2023-08-23T23:24:41.651Z,19.10
2023-08-23T23:27:43.395Z,20.80
2023-08-23T23:30:45.067Z,20.80
2023-08-23T23:33:46.778Z,19.60
2023-08-23T23:36:48.965Z,20.50
2023-08-23T23:39:52.347Z,21.10
2023-08-23T23:42:55.094Z,21.60
2023-08-23T23:45:56.785Z,21.80
2023-08-23T23:48:58.415Z,19.70
2023-08-23T23:52:00.004Z,20.10
2023-08-23T23:55:01.859Z,19.50
2023-08-23T23:58:06.792Z,20.10
